createdAt,value
2018-08-10T00:00:00.895Z,99.99
2018-08-10T00:01:54.772Z,99.99
2018-08-10T00:02:54.203Z,99.99
2018-08-10T00:04:47.132Z,99.99
2018-08-10T00:05:47.107Z,99.99
2018-08-10T00:07:40.482Z,99.99
2018-08-10T00:08:40.206Z,99.99
2018-08-10T00:10:33.591Z,99.99
2018-08-10T00:11:33.818Z,99.99
2018-08-10T00:13:27.837Z,99.99
2018-08-10T00:14:26.920Z,99.99
2018-08-10T00:16:20.618Z,99.99
2018-08-10T00:17:20.633Z,99.99
2018-08-10T00:19:14.256Z,99.99
2018-08-10T00:20:13.982Z,99.99
2018-08-10T00:22:07.642Z,99.99
2018-08-10T00:23:07.362Z,99.99
2018-08-10T00:25:02.323Z,99.99
2018-08-10T00:26:00.428Z,99.99
2018-08-10T00:27:54.163Z,99.99
2018-08-10T00:28:53.823Z,99.99
2018-08-10T00:30:47.528Z,99.99
2018-08-10T00:31:47.472Z,99.99
2018-08-10T00:33:40.880Z,99.21
2018-08-10T00:34:40.847Z,99.40
2018-08-10T00:36:35.373Z,99.99
2018-08-10T00:37:34.959Z,99.99
2018-08-10T00:39:28.783Z,99.99
2018-08-10T00:40:29.780Z,99.11
2018-08-10T00:42:24.281Z,98.53
2018-08-10T00:43:23.003Z,98.82
2018-08-10T00:45:16.398Z,98.82
2018-08-10T00:46:18.657Z,99.21
2018-08-10T00:48:09.806Z,97.67
2018-08-10T00:49:10.318Z,97.09
2018-08-10T00:51:04.372Z,99.21
2018-08-10T00:52:03.810Z,97.76
2018-08-10T00:53:57.477Z,97.28
2018-08-10T00:54:57.761Z,96.22
2018-08-10T00:56:50.957Z,95.65
2018-08-10T00:57:50.553Z,95.55
2018-08-10T00:59:44.212Z,96.90
2018-08-10T01:00:44.198Z,96.32
2018-08-10T01:02:37.589Z,96.42
2018-08-10T01:03:37.878Z,95.75
2018-08-10T01:05:31.012Z,93.24
2018-08-10T01:06:30.681Z,93.19
2018-08-10T01:08:23.961Z,94.06
2018-08-10T01:09:23.656Z,94.83
2018-08-10T01:11:18.920Z,95.21
2018-08-10T01:12:19.625Z,93.96
2018-08-10T01:14:10.247Z,93.19
2018-08-10T01:15:10.229Z,93.29
2018-08-10T01:17:03.315Z,95.60
2018-08-10T01:18:03.569Z,95.60
2018-08-10T01:19:58.515Z,95.40
2018-08-10T01:20:56.912Z,94.54
2018-08-10T01:22:50.376Z,94.26
2018-08-10T01:23:50.312Z,94.16
2018-08-10T01:25:43.439Z,95.40
2018-08-10T01:26:43.718Z,94.40
2018-08-10T01:28:37.899Z,94.40
2018-08-10T01:29:37.177Z,93.54
2018-08-10T01:31:33.246Z,94.69
2018-08-10T01:32:30.472Z,94.69
2018-08-10T01:34:23.897Z,94.11
2018-08-10T01:35:23.531Z,95.55
2018-08-10T01:37:17.249Z,95.17
2018-08-10T01:38:19.473Z,94.40
2018-08-10T01:40:10.623Z,94.69
2018-08-10T01:41:10.294Z,94.78
2018-08-10T01:43:04.708Z,95.36
2018-08-10T01:44:03.450Z,95.65
2018-08-10T01:45:59.429Z,95.26
2018-08-10T01:46:56.795Z,95.17
2018-08-10T01:48:50.203Z,94.78
2018-08-10T01:49:49.909Z,94.54
2018-08-10T01:51:43.623Z,95.60
2018-08-10T01:52:45.104Z,96.08
2018-08-10T01:54:40.573Z,92.91
2018-08-10T01:55:39.518Z,94.07
2018-08-10T01:57:32.893Z,94.64
2018-08-10T01:58:32.954Z,96.08
2018-08-10T02:00:26.821Z,95.70
2018-08-10T02:01:26.201Z,95.70
2018-08-10T02:03:19.700Z,94.16
2018-08-10T02:04:19.600Z,94.54
2018-08-10T02:06:15.014Z,95.41
2018-08-10T02:07:14.547Z,96.27
2018-08-10T02:09:07.168Z,96.18
2018-08-10T02:10:07.360Z,94.45
2018-08-10T02:12:02.331Z,96.27
2018-08-10T02:12:59.511Z,96.03
2018-08-10T02:14:55.209Z,98.53
2018-08-10T02:15:53.304Z,97.95
2018-08-10T02:17:46.972Z,97.28
2018-08-10T02:18:47.245Z,97.76
2018-08-10T02:20:40.353Z,99.58
2018-08-10T02:21:40.049Z,99.77
2018-08-10T02:23:36.025Z,98.91
2018-08-10T02:24:36.298Z,99.87
2018-08-10T02:26:29.771Z,99.99
2018-08-10T02:27:29.621Z,99.99
2018-08-10T02:29:22.585Z,99.77
2018-08-10T02:30:22.550Z,99.20
2018-08-10T02:32:15.914Z,99.68
2018-08-10T02:33:15.934Z,99.99
2018-08-10T02:35:09.299Z,99.99
2018-08-10T02:36:08.988Z,99.77
2018-08-10T02:38:02.769Z,99.99
2018-08-10T02:39:02.423Z,99.77
2018-08-10T02:40:56.877Z,99.99
2018-08-10T02:41:56.821Z,99.99
2018-08-10T02:43:50.252Z,99.99
2018-08-10T02:44:50.202Z,99.99
2018-08-10T02:46:44.138Z,99.99
2018-08-10T02:47:43.213Z,99.99
2018-08-10T02:49:38.145Z,99.99
2018-08-10T02:50:37.182Z,99.99
2018-08-10T02:52:29.974Z,99.99
2018-08-10T02:53:30.224Z,99.99
2018-08-10T02:55:23.633Z,99.99
2018-08-10T02:56:23.656Z,99.99
2018-08-10T02:58:17.049Z,99.99
2018-08-10T02:59:17.041Z,99.99
2018-08-10T03:01:10.012Z,99.99
2018-08-10T03:02:10.616Z,99.99
2018-08-10T03:04:04.961Z,99.99
2018-08-10T03:05:04.043Z,99.99
2018-08-10T03:06:57.725Z,99.99
2018-08-10T03:07:57.391Z,99.99
2018-08-10T03:09:51.096Z,99.99
2018-08-10T03:10:50.760Z,99.99
2018-08-10T03:12:44.463Z,99.99
2018-08-10T03:13:44.499Z,99.99
2018-08-10T03:15:38.426Z,99.99
2018-08-10T03:16:37.525Z,99.99
2018-08-10T03:18:31.257Z,99.99
2018-08-10T03:19:31.264Z,99.99
2018-08-10T03:21:26.628Z,99.99
2018-08-10T03:22:25.285Z,99.99
2018-08-10T03:24:19.451Z,99.99
2018-08-10T03:25:18.920Z,99.99
2018-08-10T03:27:12.591Z,99.99
2018-08-10T03:28:12.308Z,99.99
2018-08-10T03:30:06.380Z,99.99
2018-08-10T03:31:06.638Z,99.99
2018-08-10T03:32:59.577Z,99.99
2018-08-10T03:33:59.564Z,99.99
2018-08-10T03:35:52.936Z,99.99
2018-08-10T03:36:52.920Z,99.99
2018-08-10T03:38:47.553Z,99.99
2018-08-10T03:39:46.320Z,99.99
2018-08-10T03:42:01.238Z,99.99
2018-08-10T03:42:39.125Z,99.99
2018-08-10T03:44:35.341Z,99.99
2018-08-10T03:45:32.596Z,99.99
2018-08-10T03:47:25.986Z,99.99
2018-08-10T03:48:25.923Z,99.99
2018-08-10T03:50:20.863Z,99.99
2018-08-10T03:51:19.323Z,99.99
2018-08-10T03:53:13.973Z,99.99
2018-08-10T03:54:13.765Z,99.99
2018-08-10T03:56:07.223Z,99.99
2018-08-10T03:57:06.691Z,99.99
2018-08-10T03:59:03.148Z,99.99
2018-08-10T04:00:03.462Z,99.99
2018-08-10T04:01:57.067Z,99.99
2018-08-10T04:02:57.400Z,99.99
2018-08-10T04:04:51.316Z,99.99
2018-08-10T04:05:50.641Z,99.99
2018-08-10T04:07:46.590Z,99.99
2018-08-10T04:08:43.708Z,99.99
2018-08-10T04:10:37.670Z,99.99
2018-08-10T04:11:37.427Z,99.99
2018-08-10T04:13:30.772Z,99.99
2018-08-10T04:14:30.449Z,99.99
2018-08-10T04:16:25.252Z,99.99
2018-08-10T04:17:24.794Z,99.99
2018-08-10T04:19:18.497Z,99.99
2018-08-10T04:20:18.188Z,99.99
2018-08-10T04:22:11.974Z,99.99
2018-08-10T04:23:11.870Z,99.99
2018-08-10T04:25:05.356Z,99.99
2018-08-10T04:26:05.216Z,99.99
2018-08-10T04:27:59.694Z,99.99
2018-08-10T04:28:59.331Z,99.99
2018-08-10T04:30:53.104Z,99.99
2018-08-10T04:31:52.681Z,99.99
2018-08-10T04:33:46.332Z,99.99
2018-08-10T04:34:46.037Z,99.99
2018-08-10T04:36:39.014Z,99.99
2018-08-10T04:37:39.187Z,99.99
2018-08-10T04:39:32.629Z,99.99
2018-08-10T04:40:33.183Z,99.99
2018-08-10T04:42:27.233Z,99.99
2018-08-10T04:43:26.037Z,99.99
2018-08-10T04:45:19.328Z,99.99
2018-08-10T04:46:19.388Z,99.99
2018-08-10T04:48:12.895Z,99.99
2018-08-10T04:49:12.674Z,99.99
2018-08-10T04:51:06.369Z,99.99
2018-08-10T04:52:06.578Z,99.99
2018-08-10T04:53:59.480Z,99.99
2018-08-10T04:54:59.517Z,99.99
2018-08-10T04:56:52.519Z,99.99
2018-08-10T04:57:52.270Z,99.99
2018-08-10T04:59:45.081Z,99.99
2018-08-10T05:00:45.435Z,99.99
2018-08-10T05:02:38.595Z,99.99
2018-08-10T05:03:38.271Z,99.99
2018-08-10T05:05:33.507Z,99.99
2018-08-10T05:06:31.894Z,99.99
2018-08-10T05:08:25.005Z,99.99
2018-08-10T05:09:25.049Z,99.99
2018-08-10T05:11:18.171Z,99.99
2018-08-10T05:12:17.840Z,99.99
2018-08-10T05:14:12.094Z,99.99
2018-08-10T05:15:11.246Z,99.99
2018-08-10T05:17:04.914Z,98.91
2018-08-10T05:18:04.890Z,98.82
2018-08-10T05:19:59.171Z,96.22
2018-08-10T05:20:58.952Z,96.32
2018-08-10T05:22:51.924Z,94.54
2018-08-10T05:23:51.808Z,93.97
2018-08-10T05:25:45.518Z,91.81
2018-08-10T05:26:45.345Z,89.69
2018-08-10T05:28:38.860Z,88.06
2018-08-10T05:29:38.560Z,84.73
2018-08-10T05:31:31.736Z,81.60
2018-08-10T05:32:32.012Z,81.12
2018-08-10T05:34:24.838Z,79.81
2018-08-10T05:35:24.806Z,77.73
2018-08-10T05:37:18.008Z,75.99
2018-08-10T05:38:17.859Z,75.16
2018-08-10T05:40:12.231Z,74.40
2018-08-10T05:41:12.446Z,72.66
2018-08-10T05:43:05.175Z,75.07
2018-08-10T05:44:05.462Z,73.57
2018-08-10T05:45:58.536Z,71.67
2018-08-10T05:46:59.484Z,70.13
2018-08-10T05:48:52.164Z,67.33
2018-08-10T05:49:51.824Z,66.11
2018-08-10T05:51:45.565Z,64.27
2018-08-10T05:52:45.875Z,64.37
2018-08-10T05:54:38.451Z,64.24
2018-08-10T05:55:38.115Z,64.43
2018-08-10T05:57:32.339Z,65.40
2018-08-10T05:58:32.051Z,65.24
2018-08-10T06:00:25.827Z,63.89
2018-08-10T06:01:25.729Z,64.47
2018-08-10T06:03:19.254Z,62.95
2018-08-10T06:04:18.815Z,62.66
2018-08-10T06:06:12.789Z,63.14
2018-08-10T06:07:12.207Z,62.95
2018-08-10T06:09:06.957Z,62.76
2018-08-10T06:11:19.959Z,61.21
2018-08-10T06:12:20.475Z,61.15
2018-08-10T06:14:13.421Z,61.15
2018-08-10T06:15:13.032Z,61.33
2018-08-10T06:17:06.812Z,61.46
2018-08-10T06:18:06.785Z,60.50
2018-08-10T06:20:00.103Z,60.98
2018-08-10T06:21:00.004Z,60.40
2018-08-10T06:22:54.500Z,58.59
2018-08-10T06:23:55.029Z,58.11
2018-08-10T06:25:47.899Z,59.36
2018-08-10T06:26:47.480Z,59.00
2018-08-10T06:28:41.221Z,57.45
2018-08-10T06:29:41.203Z,56.87
2018-08-10T06:31:34.548Z,56.29
2018-08-10T06:32:34.278Z,55.81
2018-08-10T06:34:27.686Z,56.41
2018-08-10T06:35:28.052Z,56.13
2018-08-10T06:37:21.450Z,54.90
2018-08-10T06:38:21.056Z,54.58
2018-08-10T06:40:16.297Z,53.83
2018-08-10T06:41:14.469Z,53.83
2018-08-10T06:43:07.419Z,53.92
2018-08-10T06:44:07.765Z,53.73
2018-08-10T06:46:01.090Z,52.86
2018-08-10T06:47:02.337Z,53.15
2018-08-10T06:48:54.486Z,51.91
2018-08-10T06:49:55.014Z,51.14
2018-08-10T06:51:48.924Z,51.33
2018-08-10T06:52:48.879Z,50.74
2018-08-10T06:54:42.262Z,49.99
2018-08-10T06:55:42.343Z,49.87
2018-08-10T06:57:37.782Z,50.36
2018-08-10T06:58:36.595Z,50.74
2018-08-10T07:00:30.167Z,49.87
2018-08-10T07:01:30.107Z,48.52
2018-08-10T07:03:24.553Z,49.58
2018-08-10T07:04:24.460Z,49.87
2018-08-10T07:06:17.994Z,48.71
2018-08-10T07:07:17.895Z,49.37
2018-08-10T07:09:10.967Z,50.72
2018-08-10T07:10:10.957Z,50.43
2018-08-10T07:12:04.706Z,50.24
2018-08-10T07:13:04.744Z,50.65
2018-08-10T07:14:58.071Z,49.58
2018-08-10T07:15:57.738Z,49.00
2018-08-10T07:17:51.163Z,49.10
2018-08-10T07:18:51.459Z,48.71
2018-08-10T07:20:44.875Z,48.61
2018-08-10T07:21:46.338Z,49.10
2018-08-10T07:23:38.232Z,48.03
2018-08-10T07:24:37.893Z,48.22
2018-08-10T07:26:31.658Z,48.52
2018-08-10T07:27:31.712Z,48.22
2018-08-10T07:29:24.994Z,48.80
2018-08-10T07:30:25.012Z,48.32
2018-08-10T07:32:18.450Z,47.93
2018-08-10T07:33:18.076Z,46.94
2018-08-10T07:35:11.804Z,48.03
2018-08-10T07:36:11.495Z,47.25
2018-08-10T07:38:05.257Z,46.36
2018-08-10T07:39:05.172Z,46.75
2018-08-10T07:40:59.235Z,46.38
2018-08-10T07:41:58.595Z,46.28
2018-08-10T07:43:52.572Z,46.96
2018-08-10T07:44:52.222Z,45.80
2018-08-10T07:46:45.352Z,46.96
2018-08-10T07:47:45.192Z,46.28
2018-08-10T07:49:38.967Z,46.48
2018-08-10T07:50:39.082Z,44.92
2018-08-10T07:52:36.912Z,45.61
2018-08-10T07:53:36.834Z,46.09
2018-08-10T07:55:30.214Z,45.31
2018-08-10T07:56:30.265Z,46.09
2018-08-10T07:58:26.113Z,45.80
2018-08-10T07:59:26.190Z,46.19
2018-08-10T08:01:20.118Z,46.45
2018-08-10T08:02:19.768Z,46.55
2018-08-10T08:04:14.023Z,46.75
2018-08-10T08:05:12.082Z,47.23
2018-08-10T08:07:05.920Z,47.62
2018-08-10T08:08:05.801Z,47.23
2018-08-10T08:09:59.480Z,47.13
2018-08-10T08:10:59.836Z,47.83
2018-08-10T08:12:53.695Z,46.38
2018-08-10T08:13:52.823Z,46.19
2018-08-10T08:15:46.650Z,46.77
2018-08-10T08:16:45.761Z,45.89
2018-08-10T08:18:39.123Z,46.26
2018-08-10T08:19:39.092Z,46.09
2018-08-10T08:21:32.468Z,45.41
2018-08-10T08:22:32.617Z,45.31
2018-08-10T08:24:28.526Z,45.21
2018-08-10T08:25:26.852Z,44.73
2018-08-10T08:27:19.046Z,44.83
2018-08-10T08:28:18.741Z,44.73
2018-08-10T08:30:12.669Z,44.32
2018-08-10T08:31:12.127Z,44.23
2018-08-10T08:33:06.022Z,44.78
2018-08-10T08:34:05.725Z,44.90
2018-08-10T08:35:59.864Z,44.81
2018-08-10T08:36:59.929Z,45.29
2018-08-10T08:38:58.835Z,46.26
2018-08-10T08:39:56.304Z,45.39
2018-08-10T08:41:49.370Z,44.90
2018-08-10T08:42:49.447Z,45.10
2018-08-10T08:44:47.114Z,44.90
2018-08-10T08:45:42.346Z,44.81
2018-08-10T08:47:35.987Z,44.81
2018-08-10T08:48:35.643Z,44.13
2018-08-10T08:50:29.388Z,44.13
2018-08-10T08:51:29.414Z,43.54
2018-08-10T08:53:22.487Z,43.06
2018-08-10T08:54:22.716Z,43.84
2018-08-10T08:56:17.154Z,43.54
2018-08-10T08:57:15.331Z,44.13
2018-08-10T08:59:09.186Z,44.10
2018-08-10T09:00:09.164Z,44.78
2018-08-10T09:02:02.037Z,44.30
2018-08-10T09:03:01.683Z,44.40
2018-08-10T09:04:55.652Z,43.62
2018-08-10T09:05:55.431Z,44.20
2018-08-10T09:07:48.670Z,44.98
2018-08-10T09:08:48.490Z,44.57
2018-08-10T09:10:43.412Z,44.18
2018-08-10T09:11:43.180Z,44.18
2018-08-10T09:13:36.314Z,44.18
2018-08-10T09:14:36.024Z,44.18
2018-08-10T09:16:31.669Z,44.57
2018-08-10T09:17:29.126Z,44.18
2018-08-10T09:19:23.934Z,44.37
2018-08-10T09:20:23.772Z,43.31
2018-08-10T09:22:16.770Z,44.37
2018-08-10T09:23:16.757Z,43.70
2018-08-10T09:25:10.104Z,43.21
2018-08-10T09:26:09.736Z,44.09
2018-08-10T09:28:04.545Z,43.12
2018-08-10T09:29:03.175Z,44.27
2018-08-10T09:30:56.926Z,44.27
2018-08-10T09:31:56.917Z,43.60
2018-08-10T09:33:50.345Z,43.41
2018-08-10T09:34:50.271Z,43.12
2018-08-10T09:36:43.675Z,43.31
2018-08-10T09:37:43.750Z,44.37
2018-08-10T09:39:36.693Z,43.60
2018-08-10T09:40:36.291Z,42.82
2018-08-10T09:42:30.091Z,44.27
2018-08-10T09:43:30.227Z,43.31
2018-08-10T09:45:24.127Z,43.21
2018-08-10T09:46:23.434Z,42.94
2018-08-10T09:48:16.851Z,41.97
2018-08-10T09:49:16.788Z,42.36
2018-08-10T09:51:10.220Z,42.17
2018-08-10T09:52:09.812Z,43.04
2018-08-10T09:54:03.335Z,42.17
2018-08-10T09:55:03.079Z,40.81
2018-08-10T09:56:57.112Z,40.81
2018-08-10T09:57:56.492Z,40.33
2018-08-10T09:59:49.601Z,39.36
2018-08-10T10:00:50.425Z,38.87
2018-08-10T10:02:42.889Z,39.94
2018-08-10T10:03:42.966Z,40.33
2018-08-10T10:05:37.045Z,39.65
2018-08-10T10:06:36.296Z,39.45
2018-08-10T10:08:30.816Z,38.96
2018-08-10T10:09:30.824Z,39.36
2018-08-10T10:11:30.171Z,39.84
2018-08-10T10:12:24.042Z,40.52
2018-08-10T10:14:17.096Z,40.61
2018-08-10T10:15:17.058Z,39.36
2018-08-10T10:17:09.929Z,38.78
2018-08-10T10:18:09.876Z,39.06
2018-08-10T10:20:02.928Z,39.06
2018-08-10T10:21:03.531Z,39.84
2018-08-10T10:22:57.027Z,41.00
2018-08-10T10:23:56.326Z,39.26
2018-08-10T10:25:49.819Z,37.90
2018-08-10T10:26:49.724Z,37.81
2018-08-10T10:28:42.767Z,39.08
2018-08-10T10:29:42.624Z,39.84
2018-08-10T10:31:35.650Z,39.84
2018-08-10T10:32:35.260Z,39.65
2018-08-10T10:34:29.117Z,38.39
2018-08-10T10:35:28.541Z,38.40
2018-08-10T10:37:21.085Z,38.87
2018-08-10T10:38:21.045Z,38.79
2018-08-10T10:40:14.842Z,37.90
2018-08-10T10:41:16.277Z,37.90
2018-08-10T10:43:09.333Z,37.90
2018-08-10T10:44:09.489Z,37.51
2018-08-10T10:46:04.646Z,38.02
2018-08-10T10:47:03.082Z,37.73
2018-08-10T10:48:56.114Z,37.43
2018-08-10T10:49:55.991Z,38.31
2018-08-10T10:51:49.379Z,37.92
2018-08-10T10:52:49.001Z,37.92
2018-08-10T10:54:42.728Z,38.87
2018-08-10T10:55:42.921Z,38.00
2018-08-10T10:57:36.185Z,37.90
2018-08-10T10:58:35.777Z,38.09
2018-08-10T11:00:29.550Z,38.79
2018-08-10T11:01:29.499Z,39.47
2018-08-10T11:03:26.985Z,39.86
2018-08-10T11:04:25.421Z,40.25
2018-08-10T11:06:18.876Z,39.86
2018-08-10T11:07:18.509Z,38.99
2018-08-10T11:09:12.250Z,38.31
2018-08-10T11:10:11.859Z,37.73
2018-08-10T11:12:05.629Z,37.94
2018-08-10T11:13:05.631Z,37.07
2018-08-10T11:14:58.974Z,37.73
2018-08-10T11:15:58.676Z,37.34
2018-08-10T11:17:53.659Z,37.81
2018-08-10T11:18:53.358Z,38.40
2018-08-10T11:20:46.391Z,39.06
2018-08-10T11:21:46.378Z,38.99
2018-08-10T11:23:39.816Z,39.55
2018-08-10T11:24:39.798Z,39.36
2018-08-10T11:26:33.095Z,38.48
2018-08-10T11:27:33.138Z,38.95
2018-08-10T11:29:26.000Z,39.82
2018-08-10T11:30:25.765Z,39.53
2018-08-10T11:32:18.884Z,39.53
2018-08-10T11:33:18.873Z,39.24
2018-08-10T11:35:12.359Z,39.24
2018-08-10T11:36:11.939Z,39.62
2018-08-10T11:38:06.816Z,40.01
2018-08-10T11:39:06.738Z,38.68
2018-08-10T11:41:00.708Z,38.78
2018-08-10T11:41:59.700Z,38.00
2018-08-10T11:43:53.503Z,37.90
2018-08-10T11:44:53.141Z,37.41
2018-08-10T11:46:46.899Z,37.81
2018-08-10T11:47:46.569Z,36.74
2018-08-10T11:49:40.237Z,38.00
2018-08-10T11:50:40.793Z,37.71
2018-08-10T11:52:34.312Z,39.06
2018-08-10T11:53:33.308Z,38.87
2018-08-10T11:55:27.547Z,37.71
2018-08-10T11:56:26.825Z,38.00
2018-08-10T11:58:20.545Z,38.96
2018-08-10T11:59:20.085Z,38.76
2018-08-10T12:01:13.091Z,38.07
2018-08-10T12:02:13.030Z,38.37
2018-08-10T12:04:06.805Z,37.69
2018-08-10T12:05:06.786Z,37.90
2018-08-10T12:06:59.635Z,37.90
2018-08-10T12:07:59.366Z,37.03
2018-08-10T12:09:52.537Z,37.61
2018-08-10T12:10:53.089Z,37.51
2018-08-10T12:12:46.013Z,38.29
2018-08-10T12:13:45.564Z,38.50
2018-08-10T12:15:39.970Z,36.87
2018-08-10T12:16:42.860Z,36.85
